Langley Park, United Kingdom
Current Conditions -  °F | °C
As of 9:20 AM on Friday 28 Nov 2014 (Local Time) from EGNT Reporting Station
Haze Haze  
Wind Chill: 50°   Ceiling: 400
Heat Index: 50°   Visibility: 2.1mi
Dew Point: 50°   Wind: 8mph
Humidity: 100%   Direction: 110°ESE
Pressure: 29.74"   Gusts: NA
Location:  54.8°N, 1.67°W
Report Text: EGNT 280920Z 11007KT 3500 BR BKN004 10/10 Q1007
Loading
Personal Weather Stations






























Interactive Weather Map New forecast layout! Learn more

10-Day Weather Forecast

Advertisements
Track Severe Weather on mobile